createdAt,value
2023-02-22T00:00:02.380Z,39.00
2023-02-22T00:01:02.572Z,37.10
2023-02-22T00:02:02.709Z,38.10
2023-02-22T00:03:02.833Z,41.10
2023-02-22T00:04:02.950Z,34.10
2023-02-22T00:05:03.096Z,35.20
2023-02-22T00:06:03.228Z,35.60
2023-02-22T00:07:03.374Z,40.20
2023-02-22T00:08:03.522Z,39.70
2023-02-22T00:09:03.654Z,39.40
2023-02-22T00:10:03.800Z,34.50
2023-02-22T00:11:03.949Z,41.70
2023-02-22T00:12:04.069Z,39.60
2023-02-22T00:13:04.216Z,45.00
2023-02-22T00:14:04.369Z,45.50
2023-02-22T00:15:04.673Z,43.70
2023-02-22T00:16:04.728Z,40.70
2023-02-22T00:17:04.855Z,40.10
2023-02-22T00:18:05.000Z,40.70
2023-02-22T00:19:05.149Z,40.90
2023-02-22T00:20:05.369Z,42.00
2023-02-22T00:21:05.394Z,37.10
2023-02-22T00:22:05.528Z,41.90
2023-02-22T00:23:05.672Z,41.10
2023-02-22T00:24:05.817Z,36.20
2023-02-22T00:25:05.985Z,41.20
2023-02-22T00:26:06.127Z,39.70
2023-02-22T00:27:06.256Z,45.80
2023-02-22T00:28:06.397Z,39.50
2023-02-22T00:29:06.535Z,38.30
2023-02-22T00:30:06.752Z,43.60
2023-02-22T00:31:06.820Z,41.80
2023-02-22T00:32:07.029Z,37.80
2023-02-22T00:33:07.106Z,37.00
2023-02-22T00:34:07.258Z,42.00
2023-02-22T00:35:07.425Z,39.30
2023-02-22T00:36:07.573Z,46.30
2023-02-22T00:37:07.716Z,37.70
2023-02-22T00:38:07.894Z,32.40
2023-02-22T00:39:08.009Z,35.80
2023-02-22T00:40:08.182Z,40.80
2023-02-22T00:41:08.317Z,42.30
2023-02-22T00:42:08.482Z,36.30
2023-02-22T00:43:08.635Z,41.30
2023-02-22T00:44:08.779Z,40.30
2023-02-22T00:45:08.951Z,38.10
2023-02-22T00:46:09.148Z,45.70
2023-02-22T00:47:09.262Z,42.70
2023-02-22T00:48:09.415Z,37.50
2023-02-22T00:49:09.548Z,38.70
2023-02-22T00:50:09.723Z,42.00
2023-02-22T00:51:09.858Z,39.30
2023-02-22T00:52:10.019Z,43.60
2023-02-22T00:53:10.159Z,50.80
2023-02-22T00:54:10.316Z,50.60
2023-02-22T00:55:10.528Z,48.30
2023-02-22T00:56:10.567Z,61.20
2023-02-22T00:57:10.697Z,49.90
2023-02-22T00:58:10.850Z,45.20
2023-02-22T00:59:11.002Z,45.60
2023-02-22T01:00:11.156Z,44.10
2023-02-22T01:01:11.336Z,37.20
2023-02-22T01:02:11.607Z,44.00
2023-02-22T01:03:11.569Z,41.10
2023-02-22T01:04:11.787Z,47.40
2023-02-22T01:05:11.936Z,42.90
2023-02-22T01:06:12.084Z,40.40
2023-02-22T01:07:12.221Z,40.20
2023-02-22T01:08:12.362Z,37.20
2023-02-22T01:09:12.513Z,45.20
2023-02-22T01:10:12.663Z,47.20
2023-02-22T01:11:12.800Z,62.30
2023-02-22T01:12:12.949Z,40.50
2023-02-22T01:13:13.183Z,40.10
2023-02-22T01:14:13.197Z,42.10
2023-02-22T01:15:13.346Z,41.50
2023-02-22T01:16:13.530Z,43.90
2023-02-22T01:17:13.643Z,41.10
2023-02-22T01:18:13.787Z,36.70
2023-02-22T01:19:13.919Z,76.50
2023-02-22T01:20:14.074Z,81.10
2023-02-22T01:21:14.422Z,46.40
2023-02-22T01:22:14.355Z,61.20
2023-02-22T01:23:14.485Z,43.10
2023-02-22T01:24:14.628Z,40.50
2023-02-22T01:25:14.789Z,46.00
2023-02-22T01:26:14.928Z,47.30
2023-02-22T01:27:15.050Z,40.30
2023-02-22T01:28:15.250Z,43.90
2023-02-22T01:29:15.278Z,54.40
2023-02-22T01:30:15.442Z,41.90
2023-02-22T01:31:15.908Z,46.10
2023-02-22T01:32:15.724Z,59.90
2023-02-22T01:33:15.859Z,62.40
2023-02-22T01:34:15.977Z,53.80
2023-02-22T01:35:16.122Z,50.80
2023-02-22T01:36:16.265Z,46.30
2023-02-22T01:37:16.410Z,45.60
2023-02-22T01:38:16.555Z,51.00
2023-02-22T01:39:16.684Z,44.10
2023-02-22T01:40:16.851Z,40.50
2023-02-22T01:41:17.263Z,40.60
2023-02-22T01:42:17.162Z,42.90
2023-02-22T01:43:17.295Z,52.00
2023-02-22T01:44:17.441Z,50.30
2023-02-22T01:45:17.589Z,51.40
2023-02-22T01:46:17.803Z,56.20
2023-02-22T01:47:17.910Z,49.90
2023-02-22T01:48:18.061Z,143.70
2023-02-22T01:49:18.209Z,88.40
2023-02-22T01:50:18.376Z,159.00
2023-02-22T01:51:18.799Z,141.80
2023-02-22T01:52:18.677Z,82.70
2023-02-22T01:53:18.837Z,171.50
2023-02-22T01:54:19.010Z,81.20
2023-02-22T01:55:19.159Z,50.70
2023-02-22T01:56:19.349Z,45.30
2023-02-22T01:57:19.451Z,43.80
2023-02-22T01:58:19.616Z,41.70
2023-02-22T01:59:19.727Z,54.90
2023-02-22T02:00:19.896Z,85.30
2023-02-22T02:01:20.039Z,37.40
2023-02-22T02:02:20.203Z,42.80
2023-02-22T02:03:20.318Z,51.20
2023-02-22T02:04:20.460Z,41.70
2023-02-22T02:05:20.698Z,43.20
2023-02-22T02:06:20.760Z,41.60
2023-02-22T02:07:20.886Z,45.20
2023-02-22T02:08:21.027Z,53.90
2023-02-22T02:09:21.150Z,40.80
2023-02-22T02:10:21.332Z,40.70
2023-02-22T02:11:21.414Z,38.50
2023-02-22T02:12:21.553Z,50.20
2023-02-22T02:13:21.683Z,41.60
2023-02-22T02:14:21.821Z,40.20
2023-02-22T02:15:21.978Z,38.20
2023-02-22T02:16:22.123Z,39.30
2023-02-22T02:17:22.257Z,44.70
2023-02-22T02:18:22.403Z,36.30
2023-02-22T02:19:22.554Z,40.70
2023-02-22T02:20:22.740Z,38.20
2023-02-22T02:21:22.892Z,40.10
2023-02-22T02:22:23.060Z,45.00
2023-02-22T02:23:23.220Z,48.20
2023-02-22T02:24:23.381Z,41.50
2023-02-22T02:25:23.590Z,43.00
2023-02-22T02:26:23.645Z,44.90
2023-02-22T02:27:23.799Z,41.30
2023-02-22T02:28:23.954Z,40.70
2023-02-22T02:29:24.096Z,42.50
2023-02-22T02:30:24.320Z,40.00
2023-02-22T02:31:24.364Z,41.40
2023-02-22T02:32:24.570Z,46.20
2023-02-22T02:33:24.661Z,42.00
2023-02-22T02:34:24.799Z,38.60
2023-02-22T02:35:24.961Z,40.60
2023-02-22T02:36:25.115Z,50.80
2023-02-22T02:37:25.250Z,53.00
2023-02-22T02:38:25.444Z,44.20
2023-02-22T02:39:25.502Z,48.10
2023-02-22T02:40:25.717Z,45.60
2023-02-22T02:41:25.743Z,50.40
2023-02-22T02:42:25.897Z,73.20
2023-02-22T02:43:26.046Z,58.10
2023-02-22T02:44:26.208Z,65.10
2023-02-22T02:45:26.357Z,55.10
2023-02-22T02:46:26.546Z,49.00
2023-02-22T02:47:26.692Z,46.50
2023-02-22T02:48:26.862Z,52.40
2023-02-22T02:49:27.001Z,48.50
2023-02-22T02:50:27.147Z,39.80
2023-02-22T02:51:27.296Z,43.90
2023-02-22T02:52:27.437Z,40.60
2023-02-22T02:53:27.584Z,42.60
2023-02-22T02:54:27.734Z,41.50
2023-02-22T02:55:27.860Z,35.90
2023-02-22T02:56:28.022Z,49.30
2023-02-22T02:57:28.154Z,43.30
2023-02-22T02:59:21.559Z,42.90
2023-02-22T03:00:21.718Z,39.50
2023-02-22T03:01:21.890Z,45.70
2023-02-22T03:02:22.049Z,40.50
2023-02-22T03:03:22.208Z,41.40
2023-02-22T03:04:22.367Z,45.80
2023-02-22T03:05:22.526Z,47.80
2023-02-22T03:06:22.759Z,49.50
2023-02-22T03:07:22.854Z,44.80
2023-02-22T03:08:23.009Z,45.40
2023-02-22T03:09:23.176Z,48.30
2023-02-22T03:10:23.345Z,44.70
2023-02-22T03:11:23.514Z,45.30
2023-02-22T03:12:23.688Z,40.60
2023-02-22T03:13:23.848Z,50.00
2023-02-22T03:14:24.027Z,41.30
2023-02-22T03:15:24.176Z,48.60
2023-02-22T03:16:24.369Z,43.90
2023-02-22T03:17:24.513Z,50.40
2023-02-22T03:18:24.680Z,45.60
2023-02-22T03:19:24.842Z,43.40
2023-02-22T03:20:25.013Z,50.10
2023-02-22T03:21:25.172Z,42.10
2023-02-22T03:22:25.354Z,46.20
2023-02-22T03:23:25.529Z,45.30
2023-02-22T03:24:25.692Z,42.30
2023-02-22T03:25:25.832Z,42.60
2023-02-22T03:26:26.018Z,41.90
2023-02-22T03:27:26.206Z,49.10
2023-02-22T03:28:26.405Z,52.00
2023-02-22T03:29:26.546Z,47.70
2023-02-22T03:30:26.748Z,45.00
2023-02-22T03:31:26.938Z,46.60
2023-02-22T03:32:27.103Z,48.40
2023-02-22T03:33:27.271Z,43.20
2023-02-22T03:34:27.434Z,47.70
2023-02-22T03:35:27.599Z,47.00
2023-02-22T03:36:27.769Z,52.50
2023-02-22T03:37:27.923Z,51.40
2023-02-22T03:38:28.100Z,50.50
2023-02-22T03:39:28.271Z,39.20
2023-02-22T03:40:28.485Z,49.40
2023-02-22T03:41:28.654Z,50.00
2023-02-22T03:42:28.814Z,48.00
2023-02-22T03:43:28.988Z,34.90
2023-02-22T03:44:29.180Z,49.20
2023-02-22T03:45:29.349Z,45.30
2023-02-22T03:46:29.568Z,48.30
2023-02-22T03:47:29.713Z,46.50
2023-02-22T03:48:29.895Z,49.10
2023-02-22T03:49:30.083Z,45.80
2023-02-22T03:50:30.248Z,42.50
2023-02-22T03:51:30.400Z,42.20
2023-02-22T03:52:30.567Z,44.90
2023-02-22T03:53:33.673Z,42.50
2023-02-22T03:54:30.959Z,46.50
2023-02-22T03:55:31.126Z,44.80
2023-02-22T03:56:33.248Z,44.90
2023-02-22T03:57:31.439Z,48.00
2023-02-22T03:58:31.606Z,40.40
2023-02-22T03:59:31.784Z,47.10
2023-02-22T04:00:31.958Z,43.80
2023-02-22T04:01:32.122Z,42.30
2023-02-22T04:02:32.288Z,41.90
2023-02-22T04:03:32.448Z,41.80
2023-02-22T04:04:32.644Z,54.90
2023-02-22T04:05:32.817Z,45.70
2023-02-22T04:06:32.977Z,46.80
2023-02-22T04:07:33.142Z,43.60
2023-02-22T04:08:33.311Z,51.60
2023-02-22T04:09:33.470Z,51.70
2023-02-22T04:10:33.669Z,42.80
2023-02-22T04:11:33.812Z,53.70
2023-02-22T04:12:33.975Z,46.60
2023-02-22T04:13:34.152Z,45.60
2023-02-22T04:14:34.330Z,47.30
2023-02-22T04:15:34.478Z,49.50
2023-02-22T04:16:34.641Z,43.90
2023-02-22T04:17:34.790Z,41.70
2023-02-22T04:18:34.953Z,44.40
2023-02-22T04:19:35.119Z,45.60
2023-02-22T04:20:35.288Z,52.80
2023-02-22T04:21:35.448Z,45.10
2023-02-22T04:22:35.620Z,45.80
2023-02-22T04:23:35.770Z,49.20
2023-02-22T04:24:35.947Z,47.70
2023-02-22T04:25:36.609Z,52.30
2023-02-22T04:26:36.322Z,48.70
2023-02-22T04:27:36.466Z,51.00
2023-02-22T04:28:36.632Z,45.90
2023-02-22T04:29:36.802Z,41.60
2023-02-22T04:30:37.001Z,48.20
2023-02-22T04:31:37.217Z,46.70
2023-02-22T04:32:37.366Z,39.00
2023-02-22T04:33:37.449Z,47.10
2023-02-22T04:34:37.702Z,42.80
2023-02-22T04:35:37.809Z,44.70
2023-02-22T04:36:37.973Z,42.90
2023-02-22T04:37:38.126Z,43.10
2023-02-22T04:38:38.318Z,49.70
2023-02-22T04:39:38.510Z,50.50
2023-02-22T04:40:38.789Z,49.20
2023-02-22T04:41:38.828Z,44.40
2023-02-22T04:42:38.994Z,45.70
2023-02-22T04:43:39.149Z,46.60
2023-02-22T04:44:39.354Z,41.60
2023-02-22T04:45:39.496Z,40.10
2023-02-22T04:46:39.736Z,45.80
2023-02-22T04:47:39.770Z,47.10
2023-02-22T04:48:39.946Z,45.80
2023-02-22T04:49:40.121Z,53.40
2023-02-22T04:50:40.288Z,46.50
2023-02-22T04:51:40.446Z,51.20
2023-02-22T04:52:40.611Z,38.90
2023-02-22T04:53:40.772Z,41.70
2023-02-22T04:54:40.967Z,52.30
2023-02-22T04:55:41.125Z,47.50
2023-02-22T04:56:41.288Z,39.10
2023-02-22T04:57:41.430Z,48.90
2023-02-22T04:58:41.591Z,46.40
2023-02-22T04:59:41.740Z,45.70
2023-02-22T05:00:41.951Z,47.40
2023-02-22T05:01:42.058Z,45.10
2023-02-22T05:02:42.230Z,45.30
2023-02-22T05:03:42.292Z,46.30
2023-02-22T05:04:42.568Z,41.10
2023-02-22T05:05:42.707Z,44.60
2023-02-22T05:06:42.890Z,53.50
2023-02-22T05:07:43.055Z,47.80
2023-02-22T05:08:43.224Z,45.60
2023-02-22T05:09:43.392Z,52.20
2023-02-22T05:10:43.550Z,42.20
2023-02-22T05:11:43.717Z,45.20
2023-02-22T05:12:43.886Z,46.80
2023-02-22T05:13:44.030Z,40.80
2023-02-22T05:14:44.226Z,47.40
2023-02-22T05:15:44.387Z,49.60
2023-02-22T05:16:44.555Z,50.80
2023-02-22T05:17:44.724Z,42.30
2023-02-22T05:18:44.911Z,48.40
2023-02-22T05:19:45.104Z,54.10
2023-02-22T05:20:45.245Z,40.70
2023-02-22T05:21:45.401Z,46.20
2023-02-22T05:22:45.555Z,41.60
2023-02-22T05:23:45.712Z,46.20
2023-02-22T05:24:45.894Z,44.60
2023-02-22T05:25:46.053Z,48.40
2023-02-22T05:26:46.216Z,51.50
2023-02-22T05:27:46.353Z,50.40
2023-02-22T05:28:46.540Z,43.20
2023-02-22T05:29:46.701Z,47.00
2023-02-22T05:30:46.940Z,49.80
2023-02-22T05:31:47.062Z,48.70
2023-02-22T05:32:47.266Z,43.70
2023-02-22T05:33:47.278Z,47.10
2023-02-22T05:34:47.458Z,45.60
2023-02-22T05:35:47.629Z,44.10
2023-02-22T05:36:47.807Z,46.40
2023-02-22T05:37:47.951Z,52.20
2023-02-22T05:38:48.148Z,38.90
2023-02-22T05:39:48.353Z,49.30
2023-02-22T05:40:48.552Z,45.90
2023-02-22T05:41:48.659Z,47.30
2023-02-22T05:42:49.124Z,47.90
2023-02-22T05:43:48.971Z,49.10
2023-02-22T05:44:49.189Z,41.70
2023-02-22T05:45:49.397Z,47.80
2023-02-22T05:46:49.619Z,46.50
2023-02-22T05:47:49.683Z,46.90
2023-02-22T05:48:49.862Z,45.70
2023-02-22T05:49:50.067Z,44.10
2023-02-22T05:50:50.280Z,44.30
2023-02-22T05:51:50.465Z,52.50
2023-02-22T05:52:50.648Z,44.90
2023-02-22T05:53:50.838Z,49.40
2023-02-22T05:54:51.068Z,41.70
2023-02-22T05:55:51.143Z,45.40
2023-02-22T05:56:51.328Z,43.40
2023-02-22T05:57:51.534Z,45.90
2023-02-22T05:58:51.729Z,48.50
2023-02-22T05:59:51.966Z,46.60
2023-02-22T06:00:52.024Z,46.70
2023-02-22T06:01:52.213Z,41.40
2023-02-22T06:02:52.373Z,41.30
2023-02-22T06:03:52.555Z,45.30
2023-02-22T06:04:54.715Z,42.70
2023-02-22T06:05:52.872Z,51.90
2023-02-22T06:06:53.035Z,47.90
2023-02-22T06:07:53.199Z,45.30
2023-02-22T06:08:53.378Z,48.10
2023-02-22T06:09:53.563Z,45.80
2023-02-22T06:10:53.766Z,43.40
2023-02-22T06:11:54.557Z,49.00
2023-02-22T06:12:54.067Z,49.90
2023-02-22T06:13:54.246Z,44.30
2023-02-22T06:14:54.423Z,50.20
2023-02-22T06:15:54.621Z,41.80
2023-02-22T06:16:54.777Z,51.00
2023-02-22T06:17:54.948Z,47.60
2023-02-22T06:18:55.122Z,50.20
2023-02-22T06:19:55.314Z,51.80
2023-02-22T06:20:55.485Z,49.10
2023-02-22T06:21:55.655Z,41.80
2023-02-22T06:22:55.826Z,47.20
2023-02-22T06:23:55.981Z,49.70
2023-02-22T06:24:56.163Z,40.40
2023-02-22T06:25:56.331Z,56.90
2023-02-22T06:26:56.483Z,42.40
2023-02-22T06:27:56.670Z,46.10
2023-02-22T06:28:56.818Z,47.90
2023-02-22T06:29:57.007Z,50.80
2023-02-22T06:30:57.168Z,47.00
2023-02-22T06:31:57.401Z,47.10
2023-02-22T06:32:57.462Z,47.50
2023-02-22T06:33:57.631Z,47.60
2023-02-22T06:34:57.807Z,47.70
2023-02-22T06:35:57.971Z,45.50
2023-02-22T06:37:00.004Z,51.80
2023-02-22T06:37:58.340Z,46.50
2023-02-22T06:38:58.496Z,44.80
2023-02-22T06:40:04.725Z,49.70
2023-02-22T06:40:59.794Z,49.60
2023-02-22T06:41:59.001Z,53.50
2023-02-22T06:42:59.134Z,55.40
2023-02-22T06:43:59.308Z,45.30
2023-02-22T06:44:59.490Z,40.00
2023-02-22T06:45:59.667Z,56.70
2023-02-22T06:46:59.803Z,55.20
2023-02-22T06:47:59.999Z,52.70
2023-02-22T06:49:00.149Z,54.20
2023-02-22T06:50:00.337Z,47.80
2023-02-22T06:51:00.473Z,52.10
2023-02-22T06:52:00.657Z,54.90
2023-02-22T06:53:00.802Z,48.00
2023-02-22T06:54:00.970Z,48.70
2023-02-22T06:55:01.129Z,44.10
2023-02-22T06:56:01.301Z,49.70
2023-02-22T06:57:01.465Z,46.50
2023-02-22T06:58:01.629Z,52.00
2023-02-22T06:59:02.852Z,47.20
2023-02-22T07:00:01.954Z,45.80
2023-02-22T07:01:02.195Z,48.70
2023-02-22T07:02:02.333Z,42.00
2023-02-22T07:03:02.409Z,49.80
2023-02-22T07:04:02.586Z,50.30
2023-02-22T07:05:02.755Z,48.70
2023-02-22T07:06:02.917Z,49.10
2023-02-22T07:07:03.086Z,56.80
2023-02-22T07:08:03.259Z,46.20
2023-02-22T07:09:03.422Z,44.90
2023-02-22T07:10:03.573Z,45.70
2023-02-22T07:11:03.730Z,50.30
2023-02-22T07:12:03.931Z,56.60
2023-02-22T07:13:04.077Z,40.50
2023-02-22T07:14:04.247Z,44.60
2023-02-22T07:15:04.393Z,49.90
2023-02-22T07:16:04.576Z,52.70
2023-02-22T07:17:04.762Z,45.10
2023-02-22T07:18:04.933Z,55.90
2023-02-22T07:19:05.070Z,47.20
2023-02-22T07:20:05.238Z,48.60
2023-02-22T07:21:05.400Z,59.70
2023-02-22T07:22:05.579Z,47.90
2023-02-22T07:23:05.744Z,45.60
2023-02-22T07:24:05.919Z,40.30
2023-02-22T07:25:06.050Z,47.50
2023-02-22T07:26:06.205Z,47.50
2023-02-22T07:27:06.397Z,52.00
2023-02-22T07:28:06.540Z,48.10
2023-02-22T07:29:06.689Z,47.60
2023-02-22T07:30:06.903Z,43.50
2023-02-22T07:31:06.953Z,47.90
2023-02-22T07:32:07.133Z,49.90
2023-02-22T07:33:07.269Z,52.00
2023-02-22T07:34:07.340Z,50.10
2023-02-22T07:35:07.534Z,49.20
2023-02-22T07:36:07.713Z,50.90
2023-02-22T07:37:07.885Z,52.80
2023-02-22T07:38:08.160Z,52.50
2023-02-22T07:39:08.140Z,47.90
2023-02-22T07:40:08.325Z,53.60
2023-02-22T07:41:08.466Z,58.60
2023-02-22T07:42:08.642Z,49.80
2023-02-22T07:43:08.814Z,44.30
2023-02-22T07:44:08.977Z,49.70
2023-02-22T07:45:09.130Z,49.20
2023-02-22T07:46:09.449Z,54.70
2023-02-22T07:47:09.502Z,55.50
2023-02-22T07:48:09.678Z,55.00
2023-02-22T07:49:09.840Z,54.80
2023-02-22T07:50:10.008Z,49.20
2023-02-22T07:51:10.164Z,55.30
2023-02-22T07:52:10.348Z,56.90
2023-02-22T07:53:10.511Z,53.40
2023-02-22T07:54:10.661Z,52.20
2023-02-22T07:55:10.800Z,50.60
2023-02-22T07:56:10.968Z,52.60
2023-02-22T07:57:11.147Z,52.00
2023-02-22T07:58:11.311Z,57.60
2023-02-22T07:59:12.413Z,45.10
2023-02-22T08:00:11.579Z,58.00
2023-02-22T08:01:11.736Z,54.20
2023-02-22T08:02:11.970Z,54.20
2023-02-22T08:03:12.068Z,52.00
2023-02-22T08:04:12.220Z,48.70
2023-02-22T08:05:12.396Z,45.10
2023-02-22T08:06:12.559Z,45.60
2023-02-22T08:07:12.711Z,59.00
2023-02-22T08:08:12.874Z,52.40
2023-02-22T08:09:13.019Z,52.50
2023-02-22T08:10:14.146Z,49.10
2023-02-22T08:11:13.326Z,56.70
2023-02-22T08:12:13.517Z,63.70
2023-02-22T08:13:13.670Z,55.20
2023-02-22T08:14:13.847Z,48.80
2023-02-22T08:15:13.990Z,49.70
2023-02-22T08:16:14.148Z,49.40
2023-02-22T08:17:14.358Z,61.90
2023-02-22T08:18:14.486Z,50.20
2023-02-22T08:19:14.649Z,57.00
2023-02-22T08:20:14.801Z,67.90
2023-02-22T08:21:15.259Z,60.50
2023-02-22T08:22:15.106Z,61.90
2023-02-22T08:23:15.268Z,85.70
2023-02-22T08:24:15.425Z,56.80
2023-02-22T08:25:15.595Z,54.20
2023-02-22T08:26:15.796Z,68.90
2023-02-22T08:27:15.937Z,57.30
2023-02-22T08:28:16.127Z,58.80
2023-02-22T08:29:16.289Z,63.00
2023-02-22T08:30:16.489Z,64.90
2023-02-22T08:31:17.113Z,53.80
2023-02-22T08:32:16.915Z,95.30
2023-02-22T08:33:17.083Z,143.10
2023-02-22T08:34:17.052Z,85.60
2023-02-22T08:35:17.206Z,73.50
2023-02-22T08:36:17.366Z,94.50
2023-02-22T08:37:17.534Z,63.80
2023-02-22T08:38:17.703Z,49.40
2023-02-22T08:39:17.850Z,77.70
2023-02-22T08:40:18.011Z,63.50
2023-02-22T08:41:18.543Z,67.00
2023-02-22T08:42:18.320Z,56.60
2023-02-22T08:43:18.469Z,75.40
2023-02-22T08:44:18.620Z,74.60
2023-02-22T08:45:18.757Z,51.20
2023-02-22T08:46:18.978Z,68.20
2023-02-22T08:47:19.025Z,61.50
2023-02-22T08:48:19.197Z,52.00
2023-02-22T08:49:19.345Z,51.50
2023-02-22T08:50:19.494Z,53.90
2023-02-22T08:51:19.645Z,50.70
2023-02-22T08:52:19.828Z,51.80
2023-02-22T08:53:20.028Z,53.20
2023-02-22T08:54:20.195Z,48.40
2023-02-22T08:55:20.340Z,53.30
2023-02-22T08:56:20.553Z,49.90
2023-02-22T08:57:21.870Z,54.90
2023-02-22T08:58:20.841Z,56.10
2023-02-22T08:59:28.009Z,46.10
2023-02-22T09:00:21.138Z,51.00
2023-02-22T09:01:32.730Z,53.50
2023-02-22T09:02:22.684Z,44.30
2023-02-22T09:03:21.647Z,44.90
2023-02-22T09:04:21.720Z,56.30
2023-02-22T09:05:21.883Z,48.20
2023-02-22T09:06:22.047Z,54.50
2023-02-22T09:07:22.179Z,65.00
2023-02-22T09:08:22.356Z,51.10
2023-02-22T09:09:22.523Z,57.50
2023-02-22T09:10:22.835Z,49.20
2023-02-22T09:11:22.879Z,59.30
2023-02-22T09:12:23.026Z,59.40
2023-02-22T09:13:23.186Z,53.80
2023-02-22T09:14:23.339Z,49.20
2023-02-22T09:15:23.487Z,63.30
2023-02-22T09:16:23.686Z,52.80
2023-02-22T09:17:23.719Z,48.60
2023-02-22T09:18:25.606Z,58.80
2023-02-22T09:19:24.045Z,63.30
2023-02-22T09:20:24.234Z,49.20
2023-02-22T09:21:24.385Z,51.70
2023-02-22T09:22:24.535Z,52.20
2023-02-22T09:23:24.703Z,54.60
2023-02-22T09:24:24.868Z,47.80
2023-02-22T09:25:25.061Z,46.20
2023-02-22T09:26:25.203Z,57.70
2023-02-22T09:27:25.323Z,42.00
2023-02-22T09:28:25.670Z,49.10
2023-02-22T09:29:25.619Z,77.00
2023-02-22T09:30:25.826Z,46.70
2023-02-22T09:31:25.948Z,48.70
2023-02-22T09:32:26.197Z,60.60
2023-02-22T09:33:26.240Z,54.40
2023-02-22T09:34:26.289Z,53.80
2023-02-22T09:35:26.432Z,50.60
2023-02-22T09:36:26.600Z,51.00
2023-02-22T09:37:26.745Z,44.90
2023-02-22T09:38:26.916Z,49.00
2023-02-22T09:39:27.107Z,51.30
2023-02-22T09:40:27.240Z,50.80
2023-02-22T09:41:27.409Z,45.80
2023-02-22T09:42:27.568Z,45.70
2023-02-22T09:43:27.755Z,43.10
2023-02-22T09:44:27.919Z,52.10
2023-02-22T09:45:28.109Z,44.70
2023-02-22T09:46:28.253Z,46.50
2023-02-22T09:47:28.423Z,47.40
2023-02-22T09:48:28.542Z,53.20
2023-02-22T09:49:28.702Z,46.10
2023-02-22T09:50:28.873Z,44.70
2023-02-22T09:51:29.019Z,45.60
2023-02-22T09:52:30.129Z,42.80
2023-02-22T09:53:30.275Z,45.80
2023-02-22T09:54:29.430Z,44.70
2023-02-22T09:55:29.558Z,44.00
2023-02-22T09:56:29.726Z,40.80
2023-02-22T09:57:29.840Z,49.70
2023-02-22T09:58:30.051Z,43.70
2023-02-22T09:59:30.073Z,44.40
2023-02-22T10:00:30.238Z,43.40
2023-02-22T10:01:30.387Z,44.20
2023-02-22T10:02:30.511Z,40.50
2023-02-22T10:03:30.712Z,39.40
2023-02-22T10:04:30.834Z,51.00
2023-02-22T10:05:31.031Z,44.30
2023-02-22T10:06:31.159Z,39.30
2023-02-22T10:07:31.290Z,56.70
2023-02-22T10:08:31.598Z,43.90
2023-02-22T10:09:31.603Z,51.80
2023-02-22T10:10:31.732Z,43.00
2023-02-22T10:11:31.884Z,46.50
2023-02-22T10:12:32.009Z,41.60
2023-02-22T10:13:32.166Z,38.00
2023-02-22T10:14:32.293Z,56.60
2023-02-22T10:15:32.424Z,59.30
2023-02-22T10:16:32.571Z,46.80
2023-02-22T10:17:32.696Z,49.00
2023-02-22T10:18:32.865Z,37.90
2023-02-22T10:19:32.972Z,43.90
2023-02-22T10:20:33.096Z,45.00
2023-02-22T10:21:33.244Z,40.60
2023-02-22T10:22:33.378Z,40.00
2023-02-22T10:23:33.525Z,45.30
2023-02-22T10:24:33.652Z,39.30
2023-02-22T10:25:33.791Z,34.70
2023-02-22T10:26:33.918Z,37.90
2023-02-22T10:27:34.090Z,42.40
2023-02-22T10:28:34.258Z,40.50
2023-02-22T10:29:34.407Z,37.30
2023-02-22T10:30:34.758Z,36.70
2023-02-22T10:31:34.800Z,40.50
2023-02-22T10:32:34.881Z,34.00
2023-02-22T10:33:35.082Z,33.20
2023-02-22T10:34:35.167Z,36.60
2023-02-22T10:35:35.328Z,36.80
2023-02-22T10:36:36.454Z,38.60
2023-02-22T10:37:35.699Z,37.60
2023-02-22T10:38:35.794Z,36.50
2023-02-22T10:39:35.985Z,68.10
2023-02-22T10:40:36.106Z,48.80
2023-02-22T10:41:36.260Z,41.80
2023-02-22T10:42:36.426Z,38.70
2023-02-22T10:43:36.629Z,37.40
2023-02-22T10:44:36.654Z,50.30
2023-02-22T10:45:36.823Z,42.30
2023-02-22T10:46:36.874Z,42.70
2023-02-22T10:47:37.006Z,43.70
2023-02-22T10:48:37.168Z,52.00
2023-02-22T10:49:37.321Z,41.90
2023-02-22T10:50:37.451Z,44.30
2023-02-22T10:51:37.603Z,46.40
2023-02-22T10:52:37.734Z,38.70
2023-02-22T10:53:37.916Z,46.80
2023-02-22T10:54:38.044Z,49.50
2023-02-22T10:55:38.252Z,69.70
2023-02-22T10:56:38.298Z,38.40
2023-02-22T10:57:38.448Z,40.60
2023-02-22T10:58:38.591Z,41.90
2023-02-22T10:59:38.740Z,41.10
2023-02-22T11:00:38.870Z,50.60
2023-02-22T11:01:39.059Z,47.20
2023-02-22T11:02:39.097Z,40.80
2023-02-22T11:03:39.243Z,32.50
2023-02-22T11:04:39.397Z,40.90
2023-02-22T11:05:39.538Z,45.60
2023-02-22T11:06:39.752Z,49.00
2023-02-22T11:07:39.866Z,43.60
2023-02-22T11:08:40.027Z,40.60
2023-02-22T11:09:40.186Z,35.50
2023-02-22T11:10:40.301Z,42.10
2023-02-22T11:11:40.436Z,39.50
2023-02-22T11:12:40.561Z,42.90
2023-02-22T11:13:40.711Z,39.20
2023-02-22T11:14:40.848Z,38.60
2023-02-22T11:15:41.004Z,37.70
2023-02-22T11:16:41.169Z,36.30
2023-02-22T11:17:41.296Z,36.40
2023-02-22T11:18:41.492Z,34.30
2023-02-22T11:19:41.525Z,36.40
2023-02-22T11:20:41.684Z,43.70
2023-02-22T11:21:41.826Z,39.60
2023-02-22T11:22:41.962Z,39.50
2023-02-22T11:23:44.617Z,32.10
2023-02-22T11:24:49.106Z,34.80
2023-02-22T11:25:43.400Z,36.20
2023-02-22T11:26:42.537Z,38.90
2023-02-22T11:27:42.656Z,43.10
2023-02-22T11:28:42.812Z,32.60
2023-02-22T11:29:42.942Z,35.30
2023-02-22T11:30:43.152Z,40.70
2023-02-22T11:31:43.235Z,41.90
2023-02-22T11:32:43.263Z,45.10
2023-02-22T11:33:43.412Z,33.30
2023-02-22T11:34:43.539Z,35.00
2023-02-22T11:35:43.702Z,33.30
2023-02-22T11:36:43.825Z,37.30
2023-02-22T11:37:44.001Z,34.00
2023-02-22T11:38:44.119Z,36.90
2023-02-22T11:39:44.294Z,37.00
2023-02-22T11:40:44.421Z,43.10
2023-02-22T11:41:44.576Z,37.90
2023-02-22T11:42:44.721Z,36.20
2023-02-22T11:43:44.988Z,34.10
2023-02-22T11:44:45.046Z,33.60
2023-02-22T11:45:57.513Z,31.20
2023-02-22T11:46:46.298Z,32.30
2023-02-22T11:47:45.433Z,33.50
2023-02-22T11:48:45.587Z,31.70
2023-02-22T11:49:45.752Z,36.70
2023-02-22T11:50:45.898Z,38.20
2023-02-22T11:51:46.022Z,31.10
2023-02-22T11:52:46.143Z,30.10
2023-02-22T11:53:46.291Z,39.60
2023-02-22T11:54:46.432Z,38.70
2023-02-22T11:55:46.542Z,37.60
2023-02-22T11:56:46.728Z,34.70
2023-02-22T11:57:46.879Z,36.50
2023-02-22T11:58:47.031Z,39.40
2023-02-22T11:59:47.173Z,34.20
2023-02-22T12:00:47.297Z,33.70
2023-02-22T12:01:47.428Z,36.80
2023-02-22T12:02:56.705Z,26.30
2023-02-22T12:03:48.745Z,33.40
2023-02-22T12:04:47.879Z,29.40
2023-02-22T12:05:47.928Z,31.50
2023-02-22T12:06:48.046Z,37.80
2023-02-22T12:07:48.168Z,31.70
2023-02-22T12:08:48.286Z,36.60
2023-02-22T12:09:48.426Z,34.40
2023-02-22T12:10:48.539Z,29.10
2023-02-22T12:11:48.683Z,45.20
2023-02-22T12:12:48.800Z,29.20
2023-02-22T12:13:48.945Z,32.00
2023-02-22T12:14:49.080Z,28.60
2023-02-22T12:15:49.239Z,31.30
2023-02-22T12:16:49.353Z,32.10
2023-02-22T12:17:59.499Z,31.50
2023-02-22T12:18:50.551Z,31.70
2023-02-22T12:19:49.702Z,33.90
2023-02-22T12:20:49.811Z,32.80
2023-02-22T12:21:49.945Z,35.80
2023-02-22T12:22:50.074Z,34.60
2023-02-22T12:23:50.258Z,30.20
2023-02-22T12:24:55.451Z,32.60
2023-02-22T12:25:51.377Z,36.40
2023-02-22T12:26:50.507Z,29.40
2023-02-22T12:27:50.626Z,33.60
2023-02-22T12:28:50.803Z,33.90
2023-02-22T12:29:50.981Z,29.30
2023-02-22T12:30:51.155Z,31.50
2023-02-22T12:31:51.318Z,32.70
2023-02-22T12:32:51.463Z,29.50
2023-02-22T12:33:51.592Z,28.50
2023-02-22T12:34:51.710Z,33.90
2023-02-22T12:35:51.758Z,30.80
2023-02-22T12:36:51.885Z,30.50
2023-02-22T12:37:52.023Z,33.80
2023-02-22T12:38:52.313Z,29.20
2023-02-22T12:39:53.970Z,27.30
2023-02-22T12:40:52.389Z,39.30
2023-02-22T12:41:52.539Z,33.30
2023-02-22T12:42:52.714Z,25.50
2023-02-22T12:43:52.850Z,31.30
2023-02-22T12:44:53.040Z,30.80
2023-02-22T12:45:53.189Z,27.20
2023-02-22T12:46:53.383Z,31.80
2023-02-22T12:47:53.420Z,35.10
2023-02-22T12:48:53.554Z,32.00
2023-02-22T12:49:53.661Z,37.90
2023-02-22T12:50:53.807Z,34.70
2023-02-22T12:51:53.949Z,31.40
2023-02-22T12:52:54.075Z,31.50
2023-02-22T12:53:54.221Z,30.00
2023-02-22T12:54:54.387Z,31.20